Suula — OJKZ — position and weather

sailwx.info

Track history (hours):
 
Tides and Currents Weather Stations Pressure Air Temp Water Temp Dewpoint Dewpoint Depression Visibility Wind Speed Wind Dir Waves Ship Positions

Suula

Last reported at 2016-Dec-04 03:34 UTC. Time now 2016-Dec-04 03:56 UTC.
Position N 59°40' E 023°33'.

Length 140 m; draft 6.5 m.

Type: Tanker. MMSI: 230956996.

Date/timePositionNaut miles runAvg speedWind from/ knotsBaromVisibWave heightAir tempDewpointWater temp
2016-Dec-04 03:34N 59°40' E 023°33'1615.8
2016-Dec-04 02:32N 59°45' E 024°04'1915.7
2016-Dec-04 01:20N 59°49' E 024°40'1215.6
2016-Dec-04 00:34N 59°52' E 025°04'1615.7
2016-Dec-03 23:33N 59°60' E 025°31'1514.6
2016-Dec-03 22:33N 60°14' E 025°35'2 0.1
2016-Dec-03 01:22N 60°16' E 025°33'0 0.1
2016-Dec-03 00:32N 60°16' E 025°33'0 0.0
2016-Dec-02 23:26N 60°16' E 025°33'0 0.0
2016-Dec-02 22:32N 60°16' E 025°33'0 0.0
2016-Dec-02 21:32N 60°16' E 025°33'0 0.0
2016-Dec-02 20:32N 60°16' E 025°33'0 0.0
2016-Dec-02 19:20N 60°16' E 025°33'0 0.0
2016-Dec-02 18:25N 60°16' E 025°33'56 2.1
2016-Dec-01 16:06N 59°41' E 024°06'5 9.3
2016-Dec-01 15:33N 59°40' E 023°57'9 9.3
2016-Dec-01 14:33N 59°37' E 023°39'10 9.3
2016-Dec-01 13:31N 59°34' E 023°21'  
2016-Nov-28 17:21N 59°35' E 023°04'1114.1
2016-Nov-28 16:33N 59°38' E 023°25'1413.9
2016-Nov-28 15:33N 59°42' E 023°52'2814.0
2016-Nov-28 13:33N 59°50' E 024°45'1414.1
2016-Nov-28 12:33N 59°54' E 025°12'1312.9
2016-Nov-28 11:33N 60°01' E 025°33'1313.3
2016-Nov-28 10:34N 60°15' E 025°34'47 1.2
2016-Nov-26 18:06N 59°32' E 024°57'814.0
2016-Nov-26 17:33N 59°38' E 024°49'44 1.9
2016-Nov-25 18:13N 60°16' E 025°33'  
Track history (hours):
 
Tides and Currents Weather Stations Pressure Air Temp Water Temp Dewpoint Dewpoint Depression Visibility Wind Speed Wind Dir Waves Ship Positions

Suula

Last reported at 2016-Dec-04 03:34 UTC. Time now 2016-Dec-04 03:56 UTC.
Position N 59°40' E 023°33'.

Length 140 m; draft 6.5 m.

Type: Tanker. MMSI: 230956996.

Date/timePositionNaut miles runAvg speedWind from/ knotsBaromVisibWave heightAir tempDewpointWater temp
2016-Dec-04 03:34N 59°40' E 023°33'1615.8
2016-Dec-04 02:32N 59°45' E 024°04'1915.7
2016-Dec-04 01:20N 59°49' E 024°40'1215.6
2016-Dec-04 00:34N 59°52' E 025°04'1615.7
2016-Dec-03 23:33N 59°60' E 025°31'1514.6
2016-Dec-03 22:33N 60°14' E 025°35'2 0.1
2016-Dec-03 01:22N 60°16' E 025°33'0 0.1
2016-Dec-03 00:32N 60°16' E 025°33'0 0.0
2016-Dec-02 23:26N 60°16' E 025°33'0 0.0
2016-Dec-02 22:32N 60°16' E 025°33'0 0.0
2016-Dec-02 21:32N 60°16' E 025°33'0 0.0
2016-Dec-02 20:32N 60°16' E 025°33'0 0.0
2016-Dec-02 19:20N 60°16' E 025°33'0 0.0
2016-Dec-02 18:25N 60°16' E 025°33'56 2.1
2016-Dec-01 16:06N 59°41' E 024°06'5 9.3
2016-Dec-01 15:33N 59°40' E 023°57'9 9.3
2016-Dec-01 14:33N 59°37' E 023°39'10 9.3
2016-Dec-01 13:31N 59°34' E 023°21'  
2016-Nov-28 17:21N 59°35' E 023°04'1114.1
2016-Nov-28 16:33N 59°38' E 023°25'1413.9
2016-Nov-28 15:33N 59°42' E 023°52'2814.0
2016-Nov-28 13:33N 59°50' E 024°45'1414.1
2016-Nov-28 12:33N 59°54' E 025°12'1312.9
2016-Nov-28 11:33N 60°01' E 025°33'1313.3
2016-Nov-28 10:34N 60°15' E 025°34'47 1.2
2016-Nov-26 18:06N 59°32' E 024°57'814.0
2016-Nov-26 17:33N 59°38' E 024°49'44 1.9
2016-Nov-25 18:13N 60°16' E 025°33'  

Dump ship's entire track history